Time;durP1;ratioP1;P1;durP2;ratioP2;P2;SDS_P1;SDS_P2;PMS_P1;PMS_P2;Temp;Humidity;BMP_temperature;BMP_pressure;BME280_temperature;BME280_humidity;BME280_pressure;Samples;Min_cycle;Max_cycle;Signal;HPM_P1;HPM_P2
2021/11/29 00:01:48;;;;;;;9.13;7.07;;;;;;;8.57;76.63;92817.31;5109979;28;20031;-70
2021/11/29 00:04:14;;;;;;;11.23;8.38;;;;;;;8.53;76.33;92805.66;5111291;27;20055;-71
2021/11/29 00:06:39;;;;;;;14.23;8.30;;;;;;;8.51;77.15;92803.22;5129844;27;20031;-71
2021/11/29 00:09:05;;;;;;;10.30;7.85;;;;;;;8.49;76.80;92787.84;5131378;27;20104;-70
2021/11/29 00:11:30;;;;;;;14.05;8.45;;;;;;;8.51;76.38;92808.41;5105015;28;20031;-71
2021/11/29 00:13:56;;;;;;;11.20;7.63;;;;;;;8.51;76.43;92813.59;5092225;28;20031;-71
2021/11/29 00:16:21;;;;;;;11.95;7.57;;;;;;;8.52;76.22;92825.53;5110085;28;20486;-71
2021/11/29 00:18:47;;;;;;;10.10;7.57;;;;;;;8.51;76.77;92829.13;5110388;28;20028;-71
2021/11/29 00:21:13;;;;;;;9.65;6.80;;;;;;;8.53;76.25;92823.78;5090035;28;20524;-71
2021/11/29 00:23:39;;;;;;;9.95;6.88;;;;;;;8.48;76.77;92813.91;5109726;28;20039;-71
2021/11/29 00:26:04;;;;;;;8.63;5.95;;;;;;;8.44;76.39;92803.09;5092480;28;20433;-70
2021/11/29 00:28:30;;;;;;;10.15;6.43;;;;;;;8.35;76.99;92800.63;5086298;28;20045;-71
2021/11/29 00:30:55;;;;;;;8.70;6.10;;;;;;;8.34;77.16;92806.78;5109555;28;20484;-71
2021/11/29 00:33:21;;;;;;;9.57;6.82;;;;;;;8.17;77.91;92795.63;5109655;28;20019;-70
2021/11/29 00:35:46;;;;;;;9.60;6.93;;;;;;;8.29;77.58;92800.28;5112191;27;20087;-71
2021/11/29 00:38:12;;;;;;;8.40;6.05;;;;;;;8.31;77.29;92789.81;5127679;27;20084;-71
2021/11/29 00:40:38;;;;;;;8.20;6.10;;;;;;;8.12;78.16;92790.13;5129770;27;20027;-71
2021/11/29 00:43:03;;;;;;;10.65;7.00;;;;;;;8.16;78.14;92794.00;5130910;27;20081;-71
2021/11/29 00:45:29;;;;;;;12.00;7.45;;;;;;;8.12;78.32;92785.75;5111957;27;20039;-70
2021/11/29 00:47:54;;;;;;;16.13;10.63;;;;;;;8.06;78.67;92779.44;5129520;27;20034;-70
2021/11/29 00:50:20;;;;;;;19.27;12.32;;;;;;;7.99;79.33;92773.28;5127654;27;20028;-71
2021/11/29 00:52:45;;;;;;;17.58;10.35;;;;;;;8.02;79.13;92772.16;5129919;28;20031;-70
2021/11/29 00:55:11;;;;;;;16.30;11.25;;;;;;;8.05;79.29;92777.00;5130448;28;20088;-70
2021/11/29 00:57:37;;;;;;;12.70;9.52;;;;;;;8.16;78.20;92775.88;5096536;28;20034;-70
2021/11/29 01:00:07;;;;;;;16.00;11.77;;;;;;;8.29;77.35;92784.78;5113416;28;20027;-70
2021/11/29 01:02:32;;;;;;;16.55;12.77;;;;;;;8.28;77.71;92778.00;5132032;27;20031;-71
2021/11/29 01:04:58;;;;;;;18.35;12.95;;;;;;;8.31;77.43;92787.22;5128106;27;20535;-70
2021/11/29 01:07:23;;;;;;;17.60;12.85;;;;;;;8.16;78.30;92804.34;5118421;27;20031;-70
2021/11/29 01:09:49;;;;;;;18.42;13.27;;;;;;;8.08;79.03;92812.91;5111269;28;20035;-70
2021/11/29 01:12:14;;;;;;;15.90;11.85;;;;;;;8.12;78.56;92818.56;5092898;28;20042;-70
2021/11/29 01:14:39;;;;;;;16.23;11.35;;;;;;;8.18;78.37;92810.97;5109767;28;20027;-71
2021/11/29 01:17:05;;;;;;;20.75;13.07;;;;;;;8.17;78.51;92806.78;5111032;28;20055;-71
2021/11/29 01:19:30;;;;;;;19.27;11.98;;;;;;;8.23;78.65;92810.50;5109820;28;20485;-70
2021/11/29 01:21:56;;;;;;;18.92;12.52;;;;;;;7.80;79.70;92783.94;5110931;28;20141;-71
2021/11/29 01:24:21;;;;;;;17.88;11.90;;;;;;;7.79;79.94;92790.88;5092794;28;20031;-71
2021/11/29 01:26:47;;;;;;;15.75;11.35;;;;;;;7.89;79.98;92777.81;5108670;28;20063;-70
2021/11/29 01:29:12;;;;;;;16.92;11.93;;;;;;;8.00;79.57;92769.75;5131580;27;20408;-70
2021/11/29 01:31:37;;;;;;;17.00;11.95;;;;;;;8.07;78.77;92760.38;5130255;28;20476;-70
2021/11/29 01:34:03;;;;;;;15.27;11.68;;;;;;;8.15;79.04;92756.19;5112140;28;20516;-70
2021/11/29 01:36:28;;;;;;;16.92;11.73;;;;;;;8.11;79.12;92744.53;5130264;28;20419;-70
2021/11/29 01:38:54;;;;;;;19.80;12.88;;;;;;;8.20;78.39;92741.78;5130039;28;20511;-71
2021/11/29 01:41:19;;;;;;;17.90;12.63;;;;;;;8.10;78.77;92717.84;5128229;28;20040;-70
2021/11/29 01:43:44;;;;;;;18.13;12.57;;;;;;;8.12;78.98;92736.63;5130129;28;20027;-71
2021/11/29 01:46:10;;;;;;;21.75;14.15;;;;;;;8.12;79.19;92735.81;5109737;28;20042;-71
2021/11/29 01:48:35;;;;;;;26.08;17.38;;;;;;;7.99;79.58;92744.84;5109541;28;20028;-71
2021/11/29 01:51:03;;;;;;;22.65;15.50;;;;;;;7.93;79.57;92745.50;5109471;28;20030;-71
2021/11/29 01:53:28;;;;;;;22.48;14.50;;;;;;;8.02;78.96;92739.38;5109473;28;20485;-71
2021/11/29 01:55:57;;;;;;;23.42;14.57;;;;;;;7.98;79.28;92734.69;5111199;28;20035;-72
2021/11/29 01:58:23;;;;;;;21.85;14.05;;;;;;;7.96;78.54;92742.59;5116497;27;20068;-71
2021/11/29 02:00:51;;;;;;;23.58;16.30;;;;;;;7.66;79.55;92738.03;5116299;27;20255;-71
2021/11/29 02:03:18;;;;;;;21.05;15.02;;;;;;;7.81;79.23;92745.00;5116657;27;20088;-71
2021/11/29 02:05:43;;;;;;;20.77;16.25;;;;;;;7.81;78.98;92719.16;5134259;27;20420;-71
2021/11/29 02:08:08;;;;;;;25.23;17.50;;;;;;;7.59;79.68;92710.25;5135053;27;20023;-72
2021/11/29 02:10:34;;;;;;;23.17;16.52;;;;;;;7.55;80.02;92703.81;5116380;27;20038;-71
2021/11/29 02:12:59;;;;;;;24.33;15.70;;;;;;;7.43;80.06;92704.28;5133498;27;20035;-71
2021/11/29 02:15:25;;;;;;;21.08;14.50;;;;;;;7.60;79.28;92711.06;5129722;27;20020;-71
2021/11/29 02:17:50;;;;;;;21.52;15.30;;;;;;;7.84;78.96;92705.13;5112825;28;20040;-71
2021/11/29 02:20:17;;;;;;;21.77;15.32;;;;;;;7.81;79.05;92708.03;5112775;28;20413;-72
2021/11/29 02:22:44;;;;;;;24.23;16.63;;;;;;;7.66;79.67;92681.19;5095781;28;20039;-72
2021/11/29 02:25:10;;;;;;;24.10;17.55;;;;;;;7.66;80.33;92700.13;5105395;27;20035;-71
2021/11/29 02:27:36;;;;;;;28.33;19.02;;;;;;;7.61;80.62;92702.38;5112640;28;20485;-72
2021/11/29 02:30:02;;;;;;;28.83;17.70;;;;;;;7.76;80.13;92697.34;5113962;28;20040;-71
2021/11/29 02:32:28;;;;;;;29.17;18.05;;;;;;;7.79;79.99;92690.06;5113754;28;20028;-72
2021/11/29 02:34:53;;;;;;;30.70;18.05;;;;;;;7.80;80.10;92701.22;5114271;27;20023;-72
2021/11/29 02:37:18;;;;;;;40.45;18.75;;;;;;;7.82;79.58;92683.78;5112483;28;20589;-71
2021/11/29 02:39:44;;;;;;;32.15;18.05;;;;;;;7.83;79.74;92685.41;5113717;28;20492;-71
2021/11/29 02:42:12;;;;;;;30.55;16.85;;;;;;;7.85;79.09;92667.94;5112369;28;20035;-72
2021/11/29 02:44:39;;;;;;;22.45;15.73;;;;;;;7.75;79.06;92662.97;5112258;28;20063;-71
2021/11/29 02:47:04;;;;;;;22.13;15.93;;;;;;;7.86;78.44;92666.19;5113466;28;20027;-72
2021/11/29 02:49:30;;;;;;;22.70;14.88;;;;;;;7.76;79.00;92658.59;5095052;28;20473;-71
2021/11/29 02:51:57;;;;;;;22.58;15.20;;;;;;;7.48;79.93;92671.81;5112820;27;20024;-71
2021/11/29 02:54:25;;;;;;;25.00;15.30;;;;;;;7.67;79.19;92659.56;5111979;27;20119;-71
2021/11/29 02:56:55;;;;;;;26.25;16.67;;;;;;;7.59;79.59;92662.94;5093176;27;20087;-72
2021/11/29 02:59:23;;;;;;;21.77;14.48;;;;;;;7.44;79.88;92652.47;5132548;27;20039;-71
2021/11/29 03:01:51;;;;;;;23.80;15.93;;;;;;;7.39;80.83;92667.63;5132021;27;20168;-71
2021/11/29 03:04:21;;;;;;;21.90;16.55;;;;;;;7.33;80.79;92663.09;5115139;27;20096;-71
2021/11/29 03:06:46;;;;;;;24.52;16.75;;;;;;;7.44;80.91;92661.97;5133565;27;20023;-71
2021/11/29 03:09:11;;;;;;;25.05;16.38;;;;;;;7.36;81.50;92657.63;5132533;27;20084;-71
2021/11/29 03:11:37;;;;;;;22.85;15.68;;;;;;;7.32;81.84;92666.63;5118824;27;20524;-71
2021/11/29 03:14:03;;;;;;;24.65;15.82;;;;;;;7.43;81.61;92686.19;5111652;28;20114;-71
2021/11/29 03:16:28;;;;;;;23.80;15.45;;;;;;;7.57;80.89;92695.88;5112882;28;20024;-71
2021/11/29 03:18:53;;;;;;;21.85;15.68;;;;;;;7.56;81.50;92689.91;5094409;28;20039;-71
2021/11/29 03:21:21;;;;;;;21.27;14.48;;;;;;;7.68;80.96;92681.84;5094469;28;20035;-71
2021/11/29 03:23:48;;;;;;;25.77;15.82;;;;;;;7.75;80.85;92675.88;5111524;28;20075;-71
2021/11/29 03:26:17;;;;;;;25.50;16.85;;;;;;;7.68;80.97;92666.34;5094469;28;20476;-71
2021/11/29 03:28:43;;;;;;;23.27;15.55;;;;;;;7.58;81.51;92685.41;5111507;28;20060;-71
2021/11/29 03:31:09;;;;;;;21.55;15.68;;;;;;;7.80;80.47;92711.56;5112172;27;20074;-71
2021/11/29 03:33:34;;;;;;;29.13;19.10;;;;;;;7.90;79.88;92719.97;5094352;28;20035;-71
2021/11/29 03:36:00;;;;;;;27.40;19.48;;;;;;;7.80;80.39;92711.56;5111202;28;20020;-71
2021/11/29 03:38:26;;;;;;;26.42;18.45;;;;;;;7.64;81.09;92694.28;5084300;27;20114;-72
2021/11/29 03:40:52;;;;;;;27.67;18.10;;;;;;;7.56;81.29;92689.13;5097409;27;20039;-71
2021/11/29 03:43:17;;;;;;;30.70;19.58;;;;;;;7.65;81.00;92700.25;5132903;27;20034;-72
2021/11/29 03:45:42;;;;;;;27.17;18.27;;;;;;;7.69;80.97;92683.44;5114112;27;20036;-71
2021/11/29 03:48:08;;;;;;;26.35;18.58;;;;;;;7.60;81.45;92670.56;5096639;27;20115;-71
2021/11/29 03:50:33;;;;;;;30.33;19.80;;;;;;;7.49;82.15;92662.28;5133089;27;20038;-71
2021/11/29 03:52:59;;;;;;;27.30;18.25;;;;;;;7.53;82.62;92667.00;5114073;27;20031;-71
2021/11/29 03:55:24;;;;;;;27.20;15.52;;;;;;;7.70;82.32;92683.31;5131381;27;20042;-71
2021/11/29 03:57:50;;;;;;;22.45;16.15;;;;;;;7.72;82.02;92670.22;5114321;27;20075;-71
2021/11/29 04:00:16;;;;;;;24.17;15.32;;;;;;;7.80;82.06;92690.88;5115758;27;20413;-72
2021/11/29 04:02:41;;;;;;;23.02;14.63;;;;;;;7.83;81.78;92688.81;5110788;28;20035;-72
2021/11/29 04:05:07;;;;;;;21.90;14.98;;;;;;;7.96;80.99;92685.72;5110617;28;20067;-71
2021/11/29 04:07:32;;;;;;;22.95;15.73;;;;;;;7.94;81.56;92679.91;5117016;27;20076;-72
2021/11/29 04:09:58;;;;;;;23.73;15.60;;;;;;;8.00;80.94;92687.00;5130971;27;20450;-72
2021/11/29 04:12:23;;;;;;;26.30;17.67;;;;;;;8.01;81.01;92686.03;5131147;27;20446;-71
2021/11/29 04:14:49;;;;;;;24.80;16.45;;;;;;;8.10;80.63;92676.47;5132062;27;20058;-72
2021/11/29 04:17:14;;;;;;;24.85;16.10;;;;;;;8.12;81.01;92669.38;5113907;27;20035;-71
2021/11/29 04:19:43;;;;;;;22.00;14.63;;;;;;;8.11;80.46;92654.84;5132103;27;20436;-71
2021/11/29 04:22:09;;;;;;;22.45;14.30;;;;;;;8.11;81.06;92628.16;5130596;27;20527;-71
2021/11/29 04:24:36;;;;;;;22.13;13.65;;;;;;;8.06;81.13;92613.94;5128027;27;20039;-71
2021/11/29 04:27:04;;;;;;;14.27;9.60;;;;;;;8.07;80.93;92628.47;5110345;28;20039;-71
2021/11/29 04:29:32;;;;;;;14.23;9.25;;;;;;;8.16;80.71;92629.31;5110245;28;20040;-71
2021/11/29 04:31:57;;;;;;;18.30;12.95;;;;;;;8.17;80.28;92636.06;5093738;28;20030;-71
2021/11/29 04:34:23;;;;;;;21.45;15.00;;;;;;;8.19;80.14;92659.16;5115756;27;20028;-71
2021/11/29 04:36:48;;;;;;;13.15;10.40;;;;;;;8.23;80.04;92642.38;5113856;27;20460;-72
2021/11/29 04:39:16;;;;;;;13.48;9.73;;;;;;;8.22;79.94;92659.66;5131703;27;20404;-72
2021/11/29 04:41:42;;;;;;;14.02;9.80;;;;;;;8.24;79.89;92649.13;5131857;27;20031;-71
2021/11/29 04:44:07;;;;;;;11.43;9.05;;;;;;;8.27;80.15;92652.22;5131654;27;20031;-71
2021/11/29 04:46:33;;;;;;;12.15;8.48;;;;;;;8.26;79.90;92650.59;5113659;28;20026;-71
2021/11/29 04:48:59;;;;;;;11.25;8.30;;;;;;;8.33;79.80;92665.44;5130538;27;20484;-71
2021/11/29 04:51:24;;;;;;;11.50;8.32;;;;;;;8.33;80.00;92661.09;5113447;28;20047;-72
2021/11/29 04:53:50;;;;;;;8.55;6.95;;;;;;;8.36;80.05;92641.81;5113429;28;20040;-72
2021/11/29 04:56:15;;;;;;;8.57;6.10;;;;;;;8.35;80.15;92624.69;5129599;28;20031;-71
2021/11/29 04:58:40;;;;;;;7.82;5.68;;;;;;;8.38;80.46;92635.50;5126596;28;20512;-72
2021/11/29 05:01:06;;;;;;;10.40;6.88;;;;;;;8.35;80.24;92630.69;5113270;28;20034;-71
2021/11/29 05:03:31;;;;;;;6.82;5.10;;;;;;;8.27;79.99;92591.91;5130439;28;20447;-71
2021/11/29 05:05:57;;;;;;;7.07;5.20;;;;;;;8.46;79.70;92616.59;5126187;27;20047;-71
2021/11/29 05:08:22;;;;;;;6.28;4.72;;;;;;;8.62;79.03;92628.69;5092332;28;20031;-70
2021/11/29 05:10:48;;;;;;;6.68;5.07;;;;;;;8.67;78.88;92652.28;5124120;28;20035;-71
2021/11/29 05:13:13;;;;;;;8.10;5.85;;;;;;;8.73;78.37;92646.44;5129685;28;20083;-71
2021/11/29 05:15:39;;;;;;;7.72;5.65;;;;;;;8.53;79.34;92653.00;5130810;27;20043;-70
2021/11/29 05:18:04;;;;;;;5.50;4.20;;;;;;;8.37;79.19;92651.22;5109258;28;20052;-71
2021/11/29 05:20:30;;;;;;;16.00;12.50;;;;;;;8.30;79.85;92656.22;5110386;28;20062;-70
2021/11/29 05:22:56;;;;;;;17.77;12.75;;;;;;;8.19;80.50;92656.59;5116585;28;20114;-73
2021/11/29 05:25:21;;;;;;;13.13;10.98;;;;;;;8.20;80.32;92645.28;5129134;27;20099;-71
2021/11/29 05:27:46;;;;;;;13.43;10.30;;;;;;;8.17;80.27;92636.06;5129509;28;20114;-71
2021/11/29 05:30:12;;;;;;;12.48;10.07;;;;;;;8.20;80.15;92637.53;5112040;28;20023;-71
2021/11/29 05:32:38;;;;;;;12.30;8.10;;;;;;;8.25;79.44;92635.25;5131565;27;20023;-71
2021/11/29 05:35:04;;;;;;;11.00;7.78;;;;;;;8.32;79.03;92646.53;5133608;27;20043;-71
2021/11/29 05:37:29;;;;;;;10.60;7.95;;;;;;;8.21;78.96;92670.16;5133852;27;20161;-72
2021/11/29 05:39:55;;;;;;;12.25;8.73;;;;;;;8.25;78.88;92686.97;5134841;27;20102;-72
2021/11/29 05:42:20;;;;;;;18.13;10.02;;;;;;;8.24;78.85;92680.97;5121052;27;20027;-71
2021/11/29 05:44:49;;;;;;;14.25;8.77;;;;;;;8.19;78.82;92660.00;5113428;28;20610;-71
2021/11/29 05:47:16;;;;;;;11.85;8.75;;;;;;;8.21;79.16;92677.94;5096463;28;20405;-71
2021/11/29 05:49:42;;;;;;;22.10;9.70;;;;;;;8.12;79.83;92671.97;5113761;28;20055;-71
2021/11/29 05:52:07;;;;;;;13.45;8.75;;;;;;;8.19;79.67;92680.69;5113111;28;20520;-71
2021/11/29 05:54:33;;;;;;;11.93;9.30;;;;;;;8.02;80.20;92666.16;5113819;28;20469;-71
2021/11/29 05:56:58;;;;;;;15.32;9.23;;;;;;;8.06;80.35;92667.44;5110894;28;20032;-71
2021/11/29 05:59:23;;;;;;;10.65;7.65;;;;;;;8.18;79.93;92673.88;5111047;28;20048;-70
2021/11/29 06:01:49;;;;;;;11.75;8.63;;;;;;;8.19;79.47;92682.44;5113622;27;20042;-71
2021/11/29 06:04:14;;;;;;;17.75;8.60;;;;;;;8.03;79.75;92684.09;5111881;28;20036;-71
2021/11/29 06:06:40;;;;;;;14.20;9.98;;;;;;;8.04;79.44;92693.47;5113539;28;20101;-71
2021/11/29 06:09:05;;;;;;;11.20;7.88;;;;;;;8.00;79.67;92681.84;5111932;28;20032;-71
2021/11/29 06:11:31;;;;;;;13.70;8.40;;;;;;;7.93;79.66;92673.09;5124085;27;20035;-71
2021/11/29 06:13:56;;;;;;;12.48;7.85;;;;;;;8.02;79.43;92695.44;5131567;27;20035;-71
2021/11/29 06:16:22;;;;;;;13.30;9.40;;;;;;;8.10;79.88;92706.72;5133745;27;20023;-71
2021/11/29 06:18:47;;;;;;;11.40;8.68;;;;;;;7.99;79.95;92700.09;5131949;27;20027;-71
2021/11/29 06:21:13;;;;;;;11.18;8.15;;;;;;;8.10;79.82;92722.22;5132647;27;20031;-71
2021/11/29 06:23:38;;;;;;;13.05;9.20;;;;;;;8.02;80.58;92726.44;5125322;27;20039;-71
2021/11/29 06:26:04;;;;;;;11.05;8.25;;;;;;;7.88;80.23;92705.59;5129830;27;20027;-71
2021/11/29 06:28:30;;;;;;;11.63;8.25;;;;;;;8.06;80.53;92722.56;5112453;27;20028;-71
2021/11/29 06:30:55;;;;;;;12.30;8.68;;;;;;;7.98;81.25;92732.09;5109109;28;20558;-71
2021/11/29 06:33:21;;;;;;;13.48;9.25;;;;;;;8.00;81.50;92762.00;5112577;27;20118;-70
2021/11/29 06:35:46;;;;;;;11.50;8.82;;;;;;;7.95;81.29;92725.47;5099245;27;20032;-71
2021/11/29 06:38:12;;;;;;;13.73;8.48;;;;;;;8.02;81.69;92725.63;5123177;27;20409;-71
2021/11/29 06:40:38;;;;;;;9.95;7.55;;;;;;;8.05;81.44;92723.53;5130308;27;20039;-71
2021/11/29 06:43:03;;;;;;;9.73;7.78;;;;;;;8.17;81.01;92723.22;5113064;27;20027;-70
2021/11/29 06:45:29;;;;;;;10.98;7.93;;;;;;;8.19;81.36;92749.69;5132567;27;20055;-71
2021/11/29 06:47:54;;;;;;;12.85;7.18;;;;;;;8.21;81.49;92737.41;5124594;27;20393;-71
2021/11/29 06:50:20;;;;;;;11.45;7.57;;;;;;;8.24;80.78;92737.09;5115605;27;20027;-71
2021/11/29 06:52:45;;;;;;;12.48;8.35;;;;;;;8.38;80.65;92741.59;5104509;27;20485;-71
2021/11/29 06:55:14;;;;;;;13.32;9.20;;;;;;;8.35;80.79;92761.81;5113848;27;20049;-70
2021/11/29 06:57:39;;;;;;;13.45;11.00;;;;;;;8.37;81.01;92773.63;5111253;28;20036;-70
2021/11/29 07:00:05;;;;;;;12.05;9.98;;;;;;;8.42;81.06;92768.78;5083871;27;20039;-70
2021/11/29 07:02:31;;;;;;;14.13;9.77;;;;;;;8.41;80.96;92769.78;5111931;27;20043;-71
2021/11/29 07:04:56;;;;;;;11.77;9.38;;;;;;;8.40;81.28;92767.34;5131751;27;20058;-70
2021/11/29 07:07:22;;;;;;;11.93;9.27;;;;;;;8.50;80.80;92780.94;5132299;27;20015;-70
2021/11/29 07:09:47;;;;;;;10.80;8.95;;;;;;;8.49;80.64;92771.53;5096424;27;20042;-70
2021/11/29 07:12:16;;;;;;;14.80;9.52;;;;;;;8.56;80.81;92772.50;5124585;27;20032;-70
2021/11/29 07:14:42;;;;;;;12.30;9.98;;;;;;;8.64;80.41;92761.34;5093192;28;20031;-70
2021/11/29 07:17:07;;;;;;;12.15;9.73;;;;;;;8.67;80.33;92776.53;5112383;28;20053;-70
2021/11/29 07:19:33;;;;;;;14.38;11.43;;;;;;;8.58;81.02;92787.84;5091062;28;20509;-70
2021/11/29 07:21:58;;;;;;;20.55;14.75;;;;;;;8.65;81.28;92799.19;5117406;27;20031;-72
2021/11/29 07:24:24;;;;;;;23.27;17.55;;;;;;;8.73;80.59;92786.22;5117111;27;20036;-70
2021/11/29 07:26:49;;;;;;;28.90;22.63;;;;;;;8.72;80.98;92789.78;5117020;27;20031;-71
2021/11/29 07:29:15;;;;;;;38.47;28.88;;;;;;;8.69;80.98;92769.38;5131919;27;20031;-71
2021/11/29 07:31:41;;;;;;;35.85;28.02;;;;;;;8.74;80.83;92774.88;5131948;27;20128;-72
2021/11/29 07:34:07;;;;;;;32.35;25.05;;;;;;;8.73;80.97;92786.22;5131810;27;20088;-71
2021/11/29 07:36:32;;;;;;;22.88;18.52;;;;;;;8.78;81.03;92791.72;5129855;27;20023;-71
2021/11/29 07:38:58;;;;;;;22.60;16.42;;;;;;;8.81;81.43;92788.78;5117475;27;20042;-71
2021/11/29 07:41:23;;;;;;;20.30;15.73;;;;;;;8.90;81.26;92777.44;5116299;27;20066;-71
2021/11/29 07:43:49;;;;;;;16.80;12.55;;;;;;;8.97;81.38;92794.88;5131271;27;20080;-71
2021/11/29 07:46:15;;;;;;;14.95;10.40;;;;;;;9.07;81.27;92777.38;5117925;27;20489;-72
2021/11/29 07:48:40;;;;;;;12.70;9.57;;;;;;;9.12;80.72;92806.19;5128436;27;20034;-72
2021/11/29 07:51:06;;;;;;;13.23;9.98;;;;;;;9.12;81.68;92796.63;5132228;27;20369;-71
2021/11/29 07:53:31;;;;;;;11.77;8.48;;;;;;;9.17;81.18;92809.09;5120162;27;20058;-71
2021/11/29 07:55:57;;;;;;;9.25;7.63;;;;;;;9.12;80.34;92770.72;5125844;27;20042;-72
2021/11/29 07:58:23;;;;;;;10.40;8.38;;;;;;;9.16;80.98;92808.28;5131252;27;20028;-71
2021/11/29 08:00:48;;;;;;;14.30;10.38;;;;;;;9.25;80.54;92796.13;5125696;27;20543;-71
2021/11/29 08:03:14;;;;;;;14.75;11.30;;;;;;;9.25;80.43;92790.94;5115097;27;20480;-73
2021/11/29 08:05:39;;;;;;;14.15;10.80;;;;;;;9.41;80.51;92808.16;5130905;27;20497;-72
2021/11/29 08:08:05;;;;;;;14.45;10.85;;;;;;;9.39;80.75;92798.00;5113901;27;20038;-73
2021/11/29 08:10:34;;;;;;;11.25;8.75;;;;;;;9.38;80.75;92788.59;5114220;27;20046;-71
2021/11/29 08:13:00;;;;;;;12.82;9.07;;;;;;;9.44;80.57;92804.44;5106649;27;20505;-72
2021/11/29 08:15:25;;;;;;;11.15;9.30;;;;;;;9.49;80.13;92807.34;5108541;27;20038;-71
2021/11/29 08:17:51;;;;;;;16.55;12.43;;;;;;;9.40;81.15;92804.78;5093303;27;20031;-71
2021/11/29 08:20:19;;;;;;;15.07;11.95;;;;;;;9.50;80.90;92821.91;5117141;27;20076;-72
2021/11/29 08:22:44;;;;;;;15.90;13.05;;;;;;;9.45;80.36;92814.66;5118013;27;20110;-71
2021/11/29 08:25:10;;;;;;;20.42;15.52;;;;;;;9.56;80.17;92829.03;5119915;27;20564;-71
2021/11/29 08:27:36;;;;;;;17.40;13.98;;;;;;;9.59;79.17;92832.09;5117263;27;20023;-72
2021/11/29 08:30:03;;;;;;;18.55;13.82;;;;;;;9.57;79.25;92823.66;5111705;28;20028;-71
2021/11/29 08:32:29;;;;;;;22.95;16.30;;;;;;;9.50;79.48;92861.63;5100309;27;20188;-72
2021/11/29 08:34:54;;;;;;;20.23;15.23;;;;;;;9.41;80.12;92878.16;5113459;27;20509;-72
2021/11/29 08:37:19;;;;;;;20.80;14.65;;;;;;;9.39;79.83;92911.22;5123916;27;20028;-71
2021/11/29 08:39:45;;;;;;;20.58;15.77;;;;;;;9.36;80.30;92984.91;5110234;28;20107;-71
2021/11/29 08:42:10;;;;;;;7.72;4.00;;;;;;;9.20;72.67;92994.47;5110125;28;20477;-71
2021/11/29 08:44:36;;;;;;;3.95;2.00;;;;;;;8.95;71.54;93028.94;5089936;28;20100;-72
2021/11/29 08:47:01;;;;;;;2.05;1.10;;;;;;;8.70;68.13;93001.41;5096008;27;20031;-72
2021/11/29 08:49:27;;;;;;;3.45;1.15;;;;;;;8.47;68.21;93014.94;5092913;28;20043;-73
2021/11/29 08:51:53;;;;;;;3.72;2.13;;;;;;;7.92;69.29;93030.88;5109944;28;20020;-73
2021/11/29 08:54:19;;;;;;;4.53;2.40;;;;;;;7.45;70.37;92997.66;5097292;28;20285;-72
2021/11/29 08:56:46;;;;;;;2.50;1.60;;;;;;;7.43;69.82;93009.91;5096495;28;20428;-75
2021/11/29 08:59:13;;;;;;;3.60;2.00;;;;;;;7.23;71.03;93013.66;5128765;28;20171;-72
2021/11/29 09:01:38;;;;;;;4.80;2.30;;;;;;;7.23;71.27;93019.63;5122209;28;20032;-71
2021/11/29 09:04:04;;;;;;;4.60;2.50;;;;;;;6.92;72.56;93009.72;5124803;28;20489;-74
2021/11/29 09:06:29;;;;;;;9.13;4.00;;;;;;;6.89;74.06;93025.50;5128079;27;20031;-70
2021/11/29 09:08:55;;;;;;;4.82;2.03;;;;;;;6.87;72.52;93029.19;5124073;27;20511;-71
2021/11/29 09:11:20;;;;;;;6.68;3.13;;;;;;;6.75;74.58;93045.88;5117531;27;20031;-70
2021/11/29 09:13:46;;;;;;;5.40;3.00;;;;;;;6.71;74.17;93061.66;5125084;27;20054;-71
2021/11/29 09:16:12;;;;;;;4.22;2.78;;;;;;;6.66;75.01;93084.50;5096820;28;20056;-70
2021/11/29 09:18:38;;;;;;;2.38;1.30;;;;;;;6.85;72.31;93093.88;5114071;28;20034;-70
2021/11/29 09:21:04;;;;;;;2.70;1.77;;;;;;;6.74;74.11;93095.84;5113808;28;20024;-71
2021/11/29 09:23:30;;;;;;;1.80;1.20;;;;;;;6.65;72.71;93129.28;5132246;27;20405;-70
2021/11/29 09:25:56;;;;;;;3.75;1.40;;;;;;;6.66;72.56;93119.81;5134246;27;20127;-71
2021/11/29 09:28:21;;;;;;;2.25;1.20;;;;;;;6.54;71.75;93108.03;5117274;27;20411;-71
2021/11/29 09:30:47;;;;;;;3.33;1.10;;;;;;;6.59;71.55;93088.59;5117372;27;20473;-70
2021/11/29 09:33:14;;;;;;;3.10;1.88;;;;;;;6.49;71.78;93100.72;5133276;27;20027;-71
2021/11/29 09:35:39;;;;;;;2.10;1.10;;;;;;;6.40;73.75;93099.00;5125101;27;20031;-71
2021/11/29 09:38:05;;;;;;;3.17;1.83;;;;;;;6.29;74.02;93083.72;5126434;27;20080;-70
2021/11/29 09:40:35;;;;;;;6.25;2.47;;;;;;;6.40;73.34;93093.84;5133830;27;20480;-70
2021/11/29 09:43:05;;;;;;;3.95;2.28;;;;;;;6.35;72.88;93086.56;5111493;28;20036;-71
2021/11/29 09:45:31;;;;;;;2.95;1.50;;;;;;;6.32;73.14;93081.66;5115607;27;20039;-71
2021/11/29 09:47:56;;;;;;;3.38;1.60;;;;;;;6.29;74.48;93076.81;5112041;27;20558;-72
2021/11/29 09:50:22;;;;;;;3.95;1.98;;;;;;;6.34;74.86;93084.13;5127092;27;20023;-71
2021/11/29 09:52:48;;;;;;;4.45;2.20;;;;;;;6.52;72.77;93085.00;5113207;27;20163;-72
2021/11/29 09:55:15;;;;;;;3.35;1.70;;;;;;;6.51;73.52;93075.59;5114172;27;20039;-70
2021/11/29 09:57:41;;;;;;;4.05;2.10;;;;;;;6.49;73.48;93073.19;5099517;27;20035;-71
2021/11/29 10:00:12;;;;;;;4.63;3.00;;;;;;;6.51;74.61;93064.47;5097321;27;20031;-71
2021/11/29 10:02:38;;;;;;;10.95;7.95;;;;;;;6.59;73.29;93087.78;5113917;27;20059;-71
2021/11/29 10:05:04;;;;;;;4.53;2.97;;;;;;;6.60;73.23;93099.72;5095959;28;20047;-71
2021/11/29 10:07:39;;;;;;;3.88;2.10;;;;;;;6.66;73.63;93096.59;5113323;28;20035;-73
2021/11/29 10:10:31;;;;;;;4.35;2.10;;;;;;;6.67;73.19;93090.44;5113913;28;20050;-71
2021/11/29 10:12:57;;;;;;;;;;;;;;;6.61;75.25;93091.84;5112111;28;20035;-71
2021/11/29 10:15:27;;;;;;;2.97;1.98;;;;;;;6.62;74.56;93084.91;5113064;28;19920;-71
2021/11/29 10:18:19;;;;;;;8.52;4.45;;;;;;;6.76;70.84;93088.78;5095844;28;20077;-71
2021/11/29 10:20:49;;;;;;;2.80;1.50;;;;;;;6.42;72.16;93095.34;5112338;28;20104;-71
2021/11/29 10:23:15;;;;;;;3.00;1.90;;;;;;;6.49;72.79;93072.34;5114052;28;20027;-71
2021/11/29 10:25:41;;;;;;;3.20;2.20;;;;;;;6.62;71.88;93074.59;5114289;28;20035;-71
2021/11/29 10:28:24;;;;;;;3.10;2.13;;;;;;;6.57;72.71;93085.34;5095693;28;20027;-72
2021/11/29 10:31:05;;;;;;;4.93;3.10;;;;;;;6.46;72.48;93067.47;5112714;28;20114;-71
2021/11/29 10:33:31;;;;;;;7.53;5.22;;;;;;;6.37;74.36;93066.59;5095422;28;20038;-71
2021/11/29 10:36:13;;;;;;;7.38;3.97;;;;;;;6.36;73.79;93077.88;5112403;28;20489;-71
2021/11/29 10:38:40;;;;;;;4.57;3.25;;;;;;;6.37;74.04;93068.34;5078656;28;20114;-71
2021/11/29 10:41:05;;;;;;;4.72;2.50;;;;;;;6.25;72.53;93071.13;5112288;28;21014;-71
2021/11/29 10:43:41;;;;;;;4.10;2.50;;;;;;;6.32;71.65;93055.88;5113492;28;20031;-71
2021/11/29 10:46:36;;;;;;;6.03;3.90;;;;;;;6.23;73.37;93070.44;5112200;28;20040;-71
2021/11/29 10:49:13;;;;;;;4.32;2.88;;;;;;;6.19;74.04;93061.41;5103325;28;20046;-70
2021/11/29 10:51:40;;;;;;;3.78;2.17;;;;;;;6.28;72.71;93058.91;5112154;28;20486;-71
2021/11/29 10:54:11;;;;;;;5.45;2.92;;;;;;;6.19;74.05;93058.81;5095065;28;20043;-71
2021/11/29 10:56:38;;;;;;;4.38;2.45;;;;;;;6.28;72.91;93066.66;5111967;28;20063;-71
2021/11/29 10:59:05;;;;;;;3.38;2.20;;;;;;;6.12;73.23;93050.00;5113130;28;20031;-71
2021/11/29 11:01:33;;;;;;;7.75;6.82;;;;;;;6.19;73.26;93058.81;5095037;28;20039;-71
2021/11/29 11:03:59;;;;;;;6.25;4.18;;;;;;;6.17;73.43;93055.56;5111690;28;20031;-71
2021/11/29 11:06:44;;;;;;;5.75;3.95;;;;;;;6.22;73.91;93060.28;5111706;28;20112;-70
2021/11/29 11:09:25;;;;;;;4.70;3.17;;;;;;;6.35;71.70;93070.25;5097284;28;20031;-71
2021/11/29 11:11:55;;;;;;;3.97;2.30;;;;;;;6.37;71.71;93068.34;5111625;28;20076;-71
2021/11/29 11:14:26;;;;;;;9.93;6.43;;;;;;;6.43;71.78;93062.63;5111807;28;20111;-70
2021/11/29 11:16:54;;;;;;;8.45;6.03;;;;;;;6.36;71.87;93062.38;5111927;28;20102;-71
2021/11/29 11:19:20;;;;;;;11.43;6.18;;;;;;;6.46;70.77;93075.22;5111667;28;20486;-70
2021/11/29 11:21:46;;;;;;;8.32;4.65;;;;;;;6.42;72.43;93071.31;5094425;28;20040;-71
2021/11/29 11:24:41;;;;;;;4.50;3.00;;;;;;;6.54;70.36;93057.25;5111539;28;20429;-71
2021/11/29 11:27:07;;;;;;;9.30;5.47;;;;;;;6.60;70.64;93054.13;5103041;28;20043;-71
2021/11/29 11:29:35;;;;;;;4.40;2.75;;;;;;;6.56;68.75;93057.94;5093578;28;20157;-71